Latest Weather Observations for Mildura

IDN60801

Issued at 4:02 pm EST Wednesday 2 September 2015 (issued every 30 minutes, with the page automatically refreshed every 10 minutes)

About weather observations | Map of weather stations | Latest weather observations for NSW | Other Formats
Station Details ID: 076031 Name: MILDURA AIRPORT Lat: -34.24 Lon: 142.09 Height: 50.0 m
Data from the previous 72 hours. | See also: Recent months at Mildura
Date/Time
EST
Temp
°C
App
Temp
°C
Dew
Point
Rel
Hum
%
Delta-T
°C
Wind Press
QNH
hPa
Press
MSL
hPa
Rain
since 9 am
mm
Dir
 
Spd
km/h
Gust
km/h
Spd
kts
Gust
kts
02/04:00pm 13.1 10.5 9.5 79 1.8 NNE 13 19 7 10 1004.8 1004.8 5.4
02/03:58pm 13.2 10.8 10.0 81 1.7 NNE 13 19 7 10 1004.8 1004.8 5.4
02/03:42pm 12.6 10.8 9.6 82 1.5 N 9 15 5 8 1005.0 1005.0 5.4
02/03:35pm 12.0 9.6 8.5 79 1.7 N 11 15 6 8 1004.9 1004.9 5.4
02/03:30pm 12.4 10.2 9.2 81 1.6 N 11 15 6 8 1004.8 1004.8 5.4
02/03:13pm 12.4 10.5 9.2 81 1.6 NE 9 17 5 9 1004.7 1004.7 5.4
02/03:00pm 12.4 10.7 9.8 84 1.3 ENE 9 15 5 8 1004.6 1004.6 5.4
02/02:30pm 11.1 9.2 9.0 87 1.0 ENE 9 13 5 7 1004.8 1004.8 5.4
02/02:00pm 10.7 8.5 9.5 92 0.6 ESE 11 15 6 8 1005.0 1005.0 5.4
02/01:30pm 10.4 7.9 9.6 95 0.4 ESE 13 17 7 9 1005.0 1005.0 5.2
02/01:08pm 10.0 8.5 9.2 95 0.4 SSE 7 13 4 7 1006.4 1006.4 5.2
02/01:00pm 10.0 8.8 9.4 96 0.3 WSW 6 9 3 5 1006.8 1006.8 5.2
02/12:55pm 10.1 8.9 9.5 96 0.3 WSW 6 9 3 5 1006.6 1006.6 5.2
02/12:38pm 9.8 6.7 9.0 95 0.4 WNW 15 20 8 11 1007.4 1007.4 5.0
02/12:30pm 9.9 7.2 9.0 94 0.4 WNW 13 19 7 10 1007.8 1007.8 4.6
02/12:00pm 10.7 8.8 9.0 89 0.8 WNW 9 13 5 7 1007.9 1007.9 2.4
02/11:42am 12.0 11.1 9.2 83 1.4 NE 4 11 2 6 1008.0 1008.0 1.0
02/11:30am 12.1 10.2 8.9 81 1.6 W 9 13 5 7 1007.5 1007.5 0.4
02/11:00am 13.9 10.8 7.2 64 3.3 NW 13 17 7 9 1008.1 1008.1 0.2
02/10:30am 14.4 11.2 6.7 60 3.7 N 13 20 7 11 1008.2 1008.2 0.2
02/10:00am 14.0 9.6 6.4 60 3.7 NNE 19 24 10 13 1007.7 1007.7 0.2
02/09:30am 14.3 10.6 7.8 65 3.2 NE 17 24 9 13 1007.8 1007.8 0.2
02/09:00am 12.7 9.3 7.6 71 2.5 ENE 15 19 8 10 1008.1 1008.1 0.8
02/08:30am 11.3 8.7 7.8 79 1.7 E 11 17 6 9 1008.6 1008.6 0.8
02/08:00am 11.0 9.2 7.1 77 1.9 SE 6 7 3 4 1009.3 1009.3 0.8
02/07:30am 10.7 8.8 7.6 81 1.5 SE 7 9 4 5 1008.8 1008.8 0.8
02/07:00am 10.8 8.8 7.1 78 1.8 ESE 7 9 4 5 1008.8 1008.8 0.8
02/06:30am 11.3 9.3 6.2 71 2.4 ENE 6 11 3 6 1009.2 1009.2 0.6
02/06:00am 10.9 8.8 6.8 76 1.9 NE 7 11 4 6 1009.5 1009.5 0.6
02/05:30am 11.4 9.0 6.9 74 2.1 NE 9 13 5 7 1009.4 1009.4 0.2
02/05:00am 12.2 8.7 5.6 64 3.1 N 13 20 7 11 1009.4 1009.4 0.2
02/04:30am 13.6 9.2 2.5 47 4.9 NNE 15 17 8 9 1009.2 1009.2 0.0
02/04:00am 14.2 9.2 1.5 42 5.5 NNE 17 22 9 12 1009.4 1009.4 0.0
02/03:30am 14.2 8.8 1.5 42 5.5 NNE 19 22 10 12 1009.7 1009.7 0.0
02/03:00am 13.7 9.5 1.7 44 5.2 NE 13 19 7 10 1010.0 1010.0 0.0
02/02:30am 11.9 7.8 2.4 52 4.1 NE 13 15 7 8 1010.7 1010.7 0.0
02/02:00am 12.2 8.3 1.2 47 4.7 NNE 11 13 6 7 1010.8 1010.8 0.0
02/01:30am 13.6 8.9 0.9 42 5.4 NE 15 19 8 10 1010.6 1010.6 0.0
02/01:00am 15.5 10.0 0.5 36 6.5 NE 19 26 10 14 1010.8 1010.8 0.0
02/12:30am 15.7 10.2 0.3 35 6.6 NNE 19 24 10 13 1011.2 1011.2 0.0
02/12:00am 15.4 9.9 0.4 36 6.4 NE 19 22 10 12 1011.4 1011.4 0.0
 
Date/Time
EST
Temp
°C
App
Temp
°C
Dew
Point
Rel
Hum
%
Delta-T
°C
Wind Press
QNH
hPa
Press
MSL
hPa
Rain
since 9 am
mm
Dir
 
Spd
km/h
Gust
km/h
Spd
kts
Gust
kts
01/11:30pm 15.6 9.9 0.6 36 6.5 NNE 20 28 11 15 1011.6 1011.6 0.0
01/11:00pm 15.6 10.0 -0.2 34 6.7 NNE 19 22 10 12 1011.8 1011.8 0.0
01/10:30pm 15.5 10.3 0.1 35 6.6 NE 17 22 9 12 1011.8 1011.8 0.0
01/10:00pm 15.2 10.0 -0.1 35 6.5 NE 17 20 9 11 1011.6 1011.6 0.0
01/09:30pm 15.4 11.4 0.4 36 6.4 ENE 11 13 6 7 1011.9 1011.9 0.0
01/09:00pm 15.5 11.1 0.5 36 6.5 NE 13 15 7 8 1011.9 1011.9 0.0
01/08:30pm 15.0 11.2 1.5 40 5.9 NE 11 13 6 7 1011.9 1011.9 0.0
01/08:00pm 15.0 11.2 1.5 40 5.9 NE 11 13 6 7 1011.9 1011.9 0.0
01/07:30pm 15.2 11.5 2.1 41 5.8 NE 11 13 6 7 1011.8 1011.8 0.0
01/07:00pm 15.4 11.7 2.2 41 5.9 NNE 11 13 6 7 1011.9 1011.9 0.0
01/06:30pm 16.1 12.4 2.2 39 6.2 NNE 11 13 6 7 1011.8 1011.8 0.0
01/06:00pm 16.9 13.1 1.8 36 6.8 NNE 11 17 6 9 1011.8 1011.8 0.0
01/05:30pm 18.2 13.3 1.7 33 7.4 NNE 17 19 9 10 1011.8 1011.8 0.0
01/05:00pm 18.9 13.8 1.0 30 8.0 NNE 17 22 9 12 1011.7 1011.7 0.0
01/04:30pm 19.8 14.7 0.8 28 8.5 N 17 26 9 14 1011.9 1011.9 0.0
01/04:00pm 20.1 13.9 0.0 26 8.9 N 22 30 12 16 1012.1 1012.1 0.0
01/03:30pm 21.1 15.7 1.4 27 9.0 N 19 26 10 14 1012.2 1012.2 0.0
01/03:00pm 20.1 14.4 0.5 27 8.8 N 20 32 11 17 1012.6 1012.6 0.0
01/02:30pm 20.5 14.8 0.4 26 9.0 N 20 28 11 15 1012.8 1012.8 0.0
01/02:00pm 21.1 16.4 0.9 26 9.2 NNW 15 22 8 12 1013.1 1013.1 0.0
01/01:30pm 20.3 14.7 0.2 26 9.0 N 19 28 10 15 1013.4 1013.4 0.0
01/01:00pm 21.1 16.1 1.4 27 9.0 N 17 30 9 16 1013.9 1013.9 0.0
01/12:30pm 20.3 15.2 0.7 27 8.8 N 17 24 9 13 1014.5 1014.5 0.0
01/12:00pm 19.5 14.4 1.0 29 8.3 N 17 24 9 13 1015.1 1015.1 0.0
01/11:30am 19.1 13.7 1.1 30 8.1 N 19 26 10 14 1015.7 1015.7 0.0
01/11:00am 18.3 13.2 0.9 31 7.7 N 17 24 9 13 1016.1 1016.1 0.0
01/10:30am 17.0 12.8 1.8 36 6.8 NNW 13 20 7 11 1016.4 1016.4 0.0
01/10:00am 16.2 12.2 2.6 40 6.1 N 13 20 7 11 1016.5 1016.5 0.0
01/09:30am 13.7 9.6 2.3 46 5.0 N 13 15 7 8 1016.7 1016.8 0.0
01/09:00am 11.6 7.9 2.1 52 4.1 N 11 15 6 8 1016.6 1016.7 0.0
01/08:30am 9.2 4.6 1.6 59 3.2 NNE 15 17 8 9 1016.5 1016.6 0.0
01/08:00am 7.9 4.4 1.5 64 2.6 NE 9 13 5 7 1016.3 1016.4 0.0
01/07:30am 5.4 1.4 0.8 72 1.8 NE 11 13 6 7 1016.6 1016.7 0.0
01/07:00am 4.0 0.4 0.3 77 1.4 NE 9 11 5 6 1016.6 1016.7 0.0
01/06:30am 4.8 1.2 0.8 75 1.6 NNE 9 11 5 6 1016.5 1016.6 0.0
01/06:00am 3.7 0.5 0.6 80 1.2 NE 7 9 4 5 1016.2 1016.3 0.0
01/05:30am 3.9 0.7 0.6 79 1.3 NE 7 9 4 5 1016.0 1016.1 0.0
01/05:00am 4.0 0.9 1.2 82 1.1 NE 7 9 4 5 1016.0 1016.1 0.0
01/04:30am 4.1 1.0 1.1 81 1.2 NE 7 7 4 4 1016.3 1016.4 0.0
01/04:00am 4.8 1.7 1.5 79 1.3 NE 7 9 4 5 1016.4 1016.5 0.0
01/03:30am 5.1 2.0 1.4 77 1.5 NE 7 9 4 5 1016.5 1016.6 0.0
01/03:00am 4.8 1.7 1.1 77 1.4 NE 7 9 4 5 1016.6 1016.7 0.0
01/02:30am 4.9 2.0 1.2 77 1.5 ENE 6 9 3 5 1016.9 1017.0 0.0
01/02:00am 4.9 1.7 1.0 76 1.5 ENE 7 11 4 6 1017.3 1017.4 0.0
01/01:30am 5.0 1.9 1.1 76 1.5 ENE 7 9 4 5 1017.5 1017.6 0.0
01/01:00am 5.9 2.8 1.4 73 1.8 NE 7 9 4 5 1017.8 1017.8 0.0
01/12:30am 6.6 3.1 1.5 70 2.1 NNE 9 11 5 6 1018.1 1018.1 0.0
01/12:00am 6.0 2.5 1.5 73 1.8 E 9 11 5 6 1018.1 1018.1 0.0
 
Date/Time
EST
Temp
°C
App
Temp
°C
Dew
Point
Rel
Hum
%
Delta-T
°C
Wind Press
QNH
hPa
Press
MSL
hPa
Rain
since 9 am
mm
Dir
 
Spd
km/h
Gust
km/h
Spd
kts
Gust
kts
31/11:30pm 6.3 2.7 0.8 68 2.2 E 9 9 5 5 1018.3 1018.3 0.0
31/11:00pm 7.2 3.8 1.7 68 2.2 E 9 9 5 5 1018.5 1018.5 0.0
31/10:30pm 6.9 3.4 1.4 68 2.2 E 9 9 5 5 1018.7 1018.7 0.0
31/10:00pm 6.9 3.9 0.8 65 2.4 SE 6 7 3 4 1018.7 1018.7 0.0
31/09:30pm 8.0 4.5 1.4 63 2.7 S 9 15 5 8 1018.7 1018.7 0.0
31/09:00pm 8.1 5.4 2.8 69 2.2 NNE 6 7 3 4 1018.5 1018.5 0.0
31/08:30pm 9.6 7.1 3.6 66 2.6 NNE 6 7 3 4 1018.4 1018.4 0.0
31/08:00pm 10.2 7.4 3.0 61 3.1 NNE 7 7 4 4 1018.3 1018.3 0.0
31/07:30pm 11.0 8.8 1.3 51 4.1 NW 2 7 1 4 1018.2 1018.2 0.0
31/07:00pm 11.5 8.9 0.9 48 4.4 WNW 4 6 2 3 1018.0 1018.0 0.0
31/06:30pm 13.7 10.6 0.4 40 5.6 WNW 6 7 3 4 1018.0 1018.0 0.0
31/06:00pm 16.3 13.3 0.8 35 6.7 W 6 7 3 4 1017.9 1017.9 0.0
31/05:30pm 17.4 14.1 0.1 31 7.5 WSW 7 13 4 7 1017.8 1017.8 0.0
31/05:00pm 17.7 13.6 -0.5 29 7.8 WNW 11 17 6 9 1017.8 1017.8 0.0
31/04:30pm 18.3 14.3 0.4 30 7.9 WNW 11 20 6 11 1017.9 1017.9 0.0
31/04:00pm 18.1 13.8 0.7 31 7.7 WNW 13 22 7 12 1018.0 1018.0 0.0
31/03:30pm 17.5 14.1 -0.7 29 7.8 WSW 7 17 4 9 1018.2 1018.2 0.0
31/03:00pm 17.8 13.3 0.0 30 7.7 SW 13 24 7 13 1018.6 1018.6 0.0
31/02:30pm 17.7 13.4 1.2 33 7.3 WSW 13 19 7 10 1018.9 1018.9 0.0
31/02:00pm 17.4 13.2 1.4 34 7.1 WSW 13 20 7 11 1019.2 1019.2 0.0
31/01:30pm 17.4 14.3 1.4 34 7.1 WSW 7 15 4 8 1019.6 1019.6 0.0
31/01:00pm 16.2 11.5 0.7 35 6.7 WSW 15 22 8 12 1020.3 1020.3 0.0
31/12:30pm 15.9 12.0 1.2 37 6.4 WSW 11 17 6 9 1020.8 1020.8 0.0
31/12:00pm 15.6 11.5 2.1 40 6.0 W 13 19 7 10 1021.4 1021.4 0.0
31/11:30am 14.9 11.4 3.4 46 5.2 NW 11 19 6 10 1021.8 1021.8 0.0
31/11:00am 14.2 11.7 3.9 50 4.7 N 6 11 3 6 1022.0 1022.0 0.0
31/10:30am 13.6 11.8 5.3 57 3.9 NNE 4 9 2 5 1022.1 1022.1 0.0
31/10:00am 11.9 9.6 4.9 62 3.2 NE 6 9 3 5 1022.5 1022.5 0.0
31/09:30am 10.2 7.6 4.1 66 2.7 ENE 7 11 4 6 1022.5 1022.5 0.0
31/09:00am 8.4 5.4 4.0 74 1.9 ESE 9 11 5 6 1022.5 1022.5 0.0
31/08:30am 6.0 3.4 3.0 81 1.2 SSE 6 9 3 5 1022.4 1022.4 0.0
31/08:00am 3.1 0.7 2.1 93 0.4 S 4 7 2 4 1022.3 1022.3 0.0
31/07:30am 0.9 -2.1 0.5 97 0.1 S 6 7 3 4 1022.2 1022.2 0.0
31/07:00am 0.0 -3.4 -0.6 96 0.2 S 7 9 4 5 1022.0 1022.0 0.0
31/06:30am 0.0 -3.2 -0.6 96 0.2 S 6 7 3 4 1021.9 1021.9 0.0
31/06:00am 0.4 -2.9 -0.2 96 0.2 S 7 9 4 5 1021.6 1021.6 0.0
31/05:30am 0.5 -2.8 -0.2 95 0.3 S 7 9 4 5 1021.6 1021.6 0.0
31/05:00am 1.0 -2.1 0.1 94 0.3 S 6 7 3 4 1021.5 1021.5 0.0
31/04:30am 1.4 -1.9 0.4 93 0.4 S 7 9 4 5 1021.6 1021.6 0.0
31/04:00am 2.0 -1.2 0.7 91 0.5 S 7 9 4 5 1021.7 1021.7 0.0
31/03:30am 2.0 -1.6 0.4 89 0.6 SSE 9 9 5 5 1021.7 1021.7 0.0
31/03:00am 1.8 -1.5 0.2 89 0.6 S 7 9 4 5 1022.0 1022.0 0.0
31/02:30am 2.2 -1.0 0.7 90 0.6 SSW 7 9 4 5 1022.3 1022.3 0.0
31/02:00am 2.6 -0.6 0.8 88 0.7 SW 7 9 4 5 1022.6 1022.6 0.0
31/01:30am 2.6 -0.5 0.3 85 0.9 SW 6 7 3 4 1022.7 1022.7 0.0
31/01:00am 3.0 0.0 0.6 84 0.9 SW 6 6 3 3 1022.7 1022.7 0.0
31/12:30am 3.6 0.7 1.6 87 0.8 SW 6 7 3 4 1022.7 1022.7 0.0
31/12:00am 4.0 1.1 1.5 84 1.0 SW 6 6 3 3 1022.8 1022.8 0.0
 
Date/Time
EST
Temp
°C
App
Temp
°C
Dew
Point
Rel
Hum
%
Delta-T
°C
Wind Press
QNH
hPa
Press
MSL
hPa
Rain
since 9 am
mm
Dir
 
Spd
km/h
Gust
km/h
Spd
kts
Gust
kts
30/11:30pm 4.6 1.5 1.3 79 1.3 SW 7 7 4 4 1023.0 1023.0 0.0
30/11:00pm 4.8 1.7 1.3 78 1.4 SW 7 7 4 4 1023.3 1023.3 0.0
30/10:30pm 5.4 2.5 1.7 77 1.5 SSW 6 7 3 4 1023.4 1023.4 0.0
30/10:00pm 6.3 3.3 1.8 73 1.8 S 7 7 4 4 1023.4 1023.4 0.0
30/09:30pm 7.3 4.5 2.0 69 2.2 S 6 7 3 4 1023.4 1023.4 0.0
30/09:00pm 7.0 4.0 1.7 69 2.1 S 7 9 4 5 1023.4 1023.4 0.0
30/08:30pm 8.0 5.0 2.0 66 2.5 SSW 7 9 4 5 1023.3 1023.3 0.0
30/08:00pm 8.7 6.0 2.7 66 2.5 SSE 6 6 3 3 1023.1 1023.1 0.0
30/07:30pm 9.4 6.7 2.5 62 2.9 SSE 6 7 3 4 1022.9 1022.9 0.0
30/07:00pm 10.5 8.9 2.6 58 3.4 CALM 0 6 0 3 1022.7 1022.7 0.0
30/06:30pm 12.3 9.4 2.5 51 4.3 SE 7 9 4 5 1022.4 1022.4 0.0
30/06:00pm 14.1 11.1 2.0 44 5.3 SSE 7 11 4 6 1022.3 1022.3 0.0
30/05:30pm 15.8 12.3 1.2 37 6.4 S 9 17 5 9 1022.1 1022.1 0.0
30/05:00pm 16.4 12.5 1.3 36 6.6 SSW 11 20 6 11 1022.1 1022.1 0.0
30/04:30pm 16.3 12.0 0.8 35 6.8 S 13 24 7 13 1022.2 1022.2 0.0

Other Formats:

Comma delimited format used in spreadsheet applications
http://www.bom.gov.au/fwo/IDN60801/IDN60801.94693.axf

JavaScript Object Notation format (JSON) in row-major order
http://www.bom.gov.au/fwo/IDN60801/IDN60801.94693.json